Time;durP1;ratioP1;P1;durP2;ratioP2;P2;SDS_P1;SDS_P2;PMS_P1;PMS_P2;Temp;Humidity;BMP_temperature;BMP_pressure;BME280_temperature;BME280_humidity;BME280_pressure;Samples;Min_cycle;Max_cycle;Signal;HPM_P1;HPM_P2
2023/01/14 00:01:10;;;;;;;22.50;3.17;;;7.60;99.90;;;;;;5025711;28;20475;-67
2023/01/14 00:03:35;;;;;;;23.52;3.63;;;7.60;99.90;;;;;;5023277;28;20380;-66
2023/01/14 00:06:01;;;;;;;24.70;3.38;;;7.60;99.90;;;;;;5026513;28;20040;-67
2023/01/14 00:08:28;;;;;;;22.80;4.13;;;7.60;99.90;;;;;;5028684;28;20053;-67
2023/01/14 00:10:53;;;;;;;26.73;4.25;;;7.60;99.90;;;;;;5022546;28;20022;-67
2023/01/14 00:13:19;;;;;;;28.90;5.15;;;7.60;99.90;;;;;;5008438;28;20044;-67
2023/01/14 00:15:50;;;;;;;15.63;3.08;;;7.60;99.90;;;;;;5033974;28;20026;-67
2023/01/14 00:18:15;;;;;;;21.20;3.47;;;7.50;99.90;;;;;;5027967;28;20009;-67
2023/01/14 00:20:41;;;;;;;23.38;3.28;;;7.50;99.90;;;;;;5025290;28;20401;-66
2023/01/14 00:23:06;;;;;;;21.10;4.50;;;7.50;99.90;;;;;;5026531;28;20025;-67
2023/01/14 00:25:34;;;;;;;22.73;3.47;;;7.50;99.90;;;;;;5025856;28;20125;-67
2023/01/14 00:28:00;;;;;;;17.88;3.75;;;7.50;99.90;;;;;;5043084;28;20537;-67
2023/01/14 00:30:25;;;;;;;30.98;4.15;;;7.50;99.90;;;;;;5026054;28;20034;-67
2023/01/14 00:32:51;;;;;;;20.98;3.42;;;7.40;99.90;;;;;;5029024;28;20029;-67
2023/01/14 00:35:16;;;;;;;24.08;4.05;;;7.40;99.90;;;;;;5030371;28;20057;-66
2023/01/14 00:37:42;;;;;;;22.42;3.40;;;7.40;99.90;;;;;;5032011;28;20095;-66
2023/01/14 00:40:08;;;;;;;10.45;2.47;;;7.30;99.90;;;;;;5032301;28;20057;-67
2023/01/14 00:42:33;;;;;;;36.03;4.72;;;7.30;99.90;;;;;;5027414;28;20048;-68
2023/01/14 00:44:59;;;;;;;17.17;3.03;;;7.30;99.90;;;;;;5028682;28;20700;-67
2023/01/14 00:47:24;;;;;;;15.23;2.70;;;7.30;99.90;;;;;;5025345;28;20067;-67
2023/01/14 00:49:51;;;;;;;24.27;2.83;;;7.30;99.90;;;;;;5026815;28;20056;-66
2023/01/14 00:52:16;;;;;;;23.08;3.03;;;7.30;99.90;;;;;;5028575;28;20052;-67
2023/01/14 00:54:42;;;;;;;16.52;2.50;;;7.30;99.90;;;;;;5028215;28;20065;-67
2023/01/14 00:57:07;;;;;;;12.75;2.33;;;7.30;99.90;;;;;;5024165;28;20025;-66
2023/01/14 00:59:33;;;;;;;17.08;3.67;;;7.30;99.90;;;;;;5020420;28;20037;-67
2023/01/14 01:01:59;;;;;;;13.23;2.83;;;7.20;99.90;;;;;;5029017;28;20037;-68
2023/01/14 01:04:24;;;;;;;35.70;4.28;;;7.20;99.90;;;;;;5028400;28;20434;-67
2023/01/14 01:06:50;;;;;;;18.40;2.83;;;7.20;99.90;;;;;;5028830;28;20037;-67
2023/01/14 01:09:16;;;;;;;31.60;3.70;;;7.20;99.90;;;;;;5029542;28;20037;-67
2023/01/14 01:11:41;;;;;;;27.15;3.63;;;7.20;99.90;;;;;;5018297;28;20040;-66
2023/01/14 01:14:07;;;;;;;14.55;2.85;;;7.20;99.90;;;;;;5005477;28;20045;-67
2023/01/14 01:16:32;;;;;;;16.67;3.35;;;7.10;99.90;;;;;;5023607;28;20030;-67
2023/01/14 01:18:58;;;;;;;18.70;3.00;;;7.10;99.90;;;;;;5025387;28;20087;-67
2023/01/14 01:21:25;;;;;;;16.15;2.70;;;7.10;99.90;;;;;;5010008;28;20076;-67
2023/01/14 01:23:50;;;;;;;18.17;3.08;;;7.10;99.90;;;;;;5024955;28;20045;-68
2023/01/14 01:26:26;;;;;;;21.13;4.55;;;7.10;99.90;;;;;;5029152;28;20495;-67
2023/01/14 01:28:54;;;;;;;18.15;2.85;;;7.10;99.90;;;;;;5027408;28;20068;-67
2023/01/14 01:31:21;;;;;;;19.85;2.47;;;7.10;99.90;;;;;;5030904;28;20053;-67
2023/01/14 01:33:47;;;;;;;17.38;2.35;;;7.10;99.90;;;;;;5028010;28;20603;-67
2023/01/14 01:36:22;;;;;;;18.83;3.72;;;7.00;99.90;;;;;;5026975;28;20104;-67
2023/01/14 01:38:48;;;;;;;23.08;4.07;;;7.00;99.90;;;;;;5028000;28;20124;-67
2023/01/14 01:41:29;;;;;;;18.98;2.45;;;6.90;99.90;;;;;;5024115;28;20038;-67
2023/01/14 01:44:04;;;;;;;14.02;2.25;;;6.90;99.90;;;;;;5020760;28;20037;-67
2023/01/14 01:46:31;;;;;;;16.52;2.22;;;6.80;99.90;;;;;;5020390;28;20041;-68
2023/01/14 01:49:01;;;;;;;12.75;2.33;;;6.80;99.90;;;;;;5017444;28;20674;-67
2023/01/14 01:51:30;;;;;;;11.77;2.13;;;6.80;99.90;;;;;;5026653;28;20025;-67
2023/01/14 01:53:59;;;;;;;20.67;2.50;;;6.80;99.90;;;;;;5025686;28;20033;-67
2023/01/14 01:56:29;;;;;;;10.52;1.88;;;6.70;99.90;;;;;;5023177;28;20030;-67
2023/01/14 01:58:56;;;;;;;16.73;2.45;;;6.60;99.90;;;;;;5022471;28;20034;-67
2023/01/14 02:01:22;;;;;;;21.38;4.00;;;6.60;99.90;;;;;;5023786;28;20029;-66
2023/01/14 02:03:49;;;;;;;20.98;4.13;;;6.60;99.90;;;;;;5024233;28;20041;-67
2023/01/14 02:06:15;;;;;;;14.85;3.45;;;6.60;99.90;;;;;;5027245;28;20033;-67
2023/01/14 02:08:45;;;;;;;15.95;2.67;;;6.60;99.90;;;;;;5019466;28;20037;-67
2023/01/14 02:11:26;;;;;;;12.35;2.38;;;6.60;99.90;;;;;;5024467;28;20018;-67
2023/01/14 02:14:14;;;;;;;13.68;3.33;;;6.70;99.90;;;;;;5002584;28;20046;-67
2023/01/14 02:17:01;;;;;;;18.27;1.95;;;6.70;99.90;;;;;;5025108;28;20524;-67
2023/01/14 02:19:44;;;;;;;22.17;2.58;;;6.70;99.90;;;;;;5024383;28;20030;-67
2023/01/14 02:22:40;;;;;;;10.23;2.27;;;6.70;99.90;;;;;;5018149;28;20059;-67
2023/01/14 02:25:30;;;;;;;9.75;1.90;;;6.70;99.90;;;;;;5027602;28;20127;-67
2023/01/14 02:28:11;;;;;;;20.52;2.90;;;6.70;99.90;;;;;;5025521;28;20095;-67
2023/01/14 02:30:58;;;;;;;21.90;2.60;;;6.70;99.90;;;;;;5024339;28;20045;-67
2023/01/14 02:33:42;;;;;;;14.95;2.75;;;6.70;99.90;;;;;;5023936;28;20059;-66
2023/01/14 02:36:29;;;;;;;14.30;2.20;;;6.70;99.90;;;;;;5026706;28;20693;-67
2023/01/14 02:39:23;;;;;;;13.70;2.55;;;6.70;99.90;;;;;;5022632;28;20038;-67
2023/01/14 02:45:03;;;;;;;22.23;3.03;;;6.70;99.90;;;;;;5024333;28;20052;-67
2023/01/14 02:47:32;;;;;;;16.80;3.60;;;6.70;99.90;;;;;;5022388;28;20091;-67
2023/01/14 02:49:59;;;;;;;14.90;2.47;;;6.70;99.90;;;;;;5024554;28;20548;-67
2023/01/14 02:52:25;;;;;;;14.85;2.45;;;6.70;99.90;;;;;;5025017;28;20395;-67
2023/01/14 02:54:55;;;;;;;13.65;2.25;;;6.80;99.90;;;;;;5025324;28;20035;-67
2023/01/14 02:57:34;;;;;;;12.70;2.38;;;6.70;99.90;;;;;;5023479;28;20059;-67
2023/01/14 03:00:26;;;;;;;17.33;2.67;;;6.80;99.90;;;;;;5016332;28;20542;-67
2023/01/14 03:03:14;;;;;;;21.92;3.05;;;6.80;99.90;;;;;;5015645;28;20087;-68
2023/01/14 03:05:47;;;;;;;9.93;1.95;;;6.80;99.90;;;;;;5025391;28;20036;-67
2023/01/14 03:08:16;;;;;;;22.07;3.20;;;6.70;99.90;;;;;;5031614;28;20025;-67
2023/01/14 03:11:06;;;;;;;18.15;2.83;;;6.70;99.90;;;;;;5016648;28;20543;-68
2023/01/14 03:13:59;;;;;;;16.63;2.70;;;6.70;99.90;;;;;;5024054;28;20541;-67
2023/01/14 03:16:30;;;;;;;17.25;3.00;;;6.60;99.90;;;;;;5038697;28;20038;-67
2023/01/14 03:19:06;;;;;;;11.27;2.05;;;6.50;99.90;;;;;;5020875;28;20411;-67
2023/01/14 03:21:41;;;;;;;23.52;4.78;;;6.40;99.90;;;;;;5026118;28;20025;-66
2023/01/14 03:24:35;;;;;;;12.30;2.42;;;6.40;99.90;;;;;;5020784;28;20272;-67
2023/01/14 03:27:22;;;;;;;12.60;2.92;;;6.40;99.90;;;;;;5020344;28;20553;-67
2023/01/14 03:29:52;;;;;;;14.13;1.88;;;6.40;99.90;;;;;;5025096;28;20038;-67
2023/01/14 03:32:25;;;;;;;17.00;2.10;;;6.40;99.90;;;;;;5020100;28;20029;-68
2023/01/14 03:35:05;;;;;;;19.58;4.82;;;6.50;99.90;;;;;;5025018;28;20076;-68
2023/01/14 03:37:31;;;;;;;21.25;4.47;;;6.40;99.90;;;;;;5024027;28;20025;-66
2023/01/14 03:40:00;;;;;;;9.65;2.25;;;6.40;99.90;;;;;;5026566;28;20107;-68
2023/01/14 03:42:31;;;;;;;19.15;3.45;;;6.40;99.90;;;;;;5023295;28;20037;-68
2023/01/14 03:45:10;;;;;;;15.40;2.92;;;6.40;99.90;;;;;;5025433;28;20038;-67
2023/01/14 03:47:37;;;;;;;27.25;2.70;;;6.40;99.90;;;;;;5022524;28;20606;-66
2023/01/14 03:50:08;;;;;;;11.43;2.25;;;6.40;99.90;;;;;;5023696;28;20116;-68
2023/01/14 03:52:45;;;;;;;18.63;2.80;;;6.30;99.90;;;;;;5022478;28;20033;-66
2023/01/14 03:55:22;;;;;;;11.48;2.22;;;6.30;99.90;;;;;;5027139;28;20032;-67
2023/01/14 03:58:25;;;;;;;18.23;2.05;;;6.30;99.90;;;;;;5023210;28;20025;-68
2023/01/14 04:00:58;;;;;;;25.35;2.78;;;6.30;99.90;;;;;;5018431;28;20025;-67
2023/01/14 04:03:25;;;;;;;17.33;2.83;;;6.20;99.90;;;;;;5024941;28;20048;-70
2023/01/14 04:05:52;;;;;;;17.17;2.72;;;6.20;99.90;;;;;;5028572;28;20426;-65
2023/01/14 04:08:20;;;;;;;11.90;2.00;;;6.10;99.90;;;;;;5025278;28;20061;-66
2023/01/14 04:10:46;;;;;;;12.95;2.33;;;6.10;99.90;;;;;;5022130;28;20033;-65
2023/01/14 04:15:59;;;;;;;20.23;3.95;;;6.00;99.90;;;;;;4994100;28;20449;-68
2023/01/14 04:18:24;;;;;;;20.63;2.67;;;6.00;99.90;;;;;;5024983;28;20025;-67
2023/01/14 04:20:50;;;;;;;15.88;2.55;;;5.90;99.90;;;;;;5024932;28;20033;-68
2023/01/14 04:23:15;;;;;;;16.65;1.80;;;5.90;99.90;;;;;;5022225;28;20718;-65
2023/01/14 04:25:41;;;;;;;18.13;1.88;;;5.80;99.90;;;;;;5026387;28;20025;-65
2023/01/14 04:28:07;;;;;;;11.93;2.80;;;5.80;99.90;;;;;;5024647;28;20031;-65
2023/01/14 04:30:32;;;;;;;12.18;1.83;;;5.80;99.90;;;;;;5022333;28;20041;-65
2023/01/14 04:32:58;;;;;;;10.13;1.83;;;5.80;99.90;;;;;;5024870;28;20041;-66
2023/01/14 04:35:23;;;;;;;11.65;2.75;;;5.70;99.90;;;;;;5025100;28;20033;-68
2023/01/14 04:37:51;;;;;;;11.60;2.72;;;5.80;99.90;;;;;;5025985;28;20034;-68
2023/01/14 04:40:17;;;;;;;17.67;2.55;;;5.70;99.90;;;;;;5022902;28;20380;-67
2023/01/14 04:42:43;;;;;;;11.63;2.42;;;5.70;99.90;;;;;;5022926;28;20441;-64
2023/01/14 04:45:09;;;;;;;12.55;2.08;;;5.70;99.90;;;;;;5024318;28;20037;-66
2023/01/14 04:47:34;;;;;;;22.83;3.80;;;5.70;99.90;;;;;;5024031;28;20410;-65
2023/01/14 04:50:30;;;;;;;12.82;2.50;;;5.60;99.90;;;;;;5023009;28;20033;-68
2023/01/14 04:52:48;;;;;;;22.63;3.13;;;5.70;99.90;;;;;;5018254;28;20037;-67
2023/01/14 04:55:14;;;;;;;15.15;1.58;;;5.70;99.90;;;;;;5024342;28;20021;-65
2023/01/14 04:57:39;;;;;;;11.23;2.97;;;5.70;99.90;;;;;;5023969;28;20050;-68
2023/01/14 05:00:06;;;;;;;12.60;1.88;;;5.70;99.90;;;;;;5024705;28;20083;-68
2023/01/14 05:02:31;;;;;;;27.77;2.50;;;5.60;99.90;;;;;;5024865;28;20033;-68
2023/01/14 05:04:57;;;;;;;19.33;2.20;;;5.70;99.90;;;;;;5030396;28;20060;-65
2023/01/14 05:07:22;;;;;;;17.60;2.45;;;5.70;99.90;;;;;;5028091;28;20025;-65
2023/01/14 05:09:48;;;;;;;21.42;3.47;;;5.70;99.90;;;;;;5026909;28;20140;-67
2023/01/14 05:12:13;;;;;;;17.25;3.15;;;5.70;99.90;;;;;;5026278;28;20084;-67
2023/01/14 05:14:39;;;;;;;24.70;2.92;;;5.70;99.90;;;;;;5004943;28;20156;-65
2023/01/14 05:17:06;;;;;;;13.10;2.25;;;5.80;99.90;;;;;;5030532;28;20152;-65
2023/01/14 05:19:31;;;;;;;14.77;2.33;;;5.70;99.90;;;;;;5026345;28;20116;-65
2023/01/14 05:21:57;;;;;;;13.23;2.90;;;5.80;99.90;;;;;;5027348;28;20048;-65
2023/01/14 05:24:22;;;;;;;23.77;3.40;;;5.80;99.90;;;;;;5023437;28;20380;-66
2023/01/14 05:26:48;;;;;;;16.67;2.38;;;5.80;99.90;;;;;;5026285;28;20028;-64
2023/01/14 05:29:14;;;;;;;8.55;1.88;;;5.80;99.90;;;;;;5025489;28;20041;-65
2023/01/14 05:31:39;;;;;;;15.82;1.90;;;5.80;99.90;;;;;;5026601;28;20029;-65
2023/01/14 05:34:05;;;;;;;14.82;2.40;;;5.80;99.90;;;;;;5030380;28;20108;-65
2023/01/14 05:36:30;;;;;;;14.38;2.08;;;5.80;99.90;;;;;;5024460;28;20061;-68
2023/01/14 05:38:56;;;;;;;8.50;1.70;;;5.80;99.90;;;;;;5026184;28;20437;-68
2023/01/14 05:41:22;;;;;;;18.25;2.08;;;5.80;99.90;;;;;;5027077;28;20482;-69
2023/01/14 05:46:31;;;;;;;14.98;2.33;;;5.80;99.90;;;;;;5028319;28;20044;-67
2023/01/14 05:48:57;;;;;;;12.07;2.60;;;5.80;99.90;;;;;;5028509;28;20037;-68
2023/01/14 05:51:22;;;;;;;28.10;2.85;;;5.80;99.90;;;;;;5027192;28;20104;-68
2023/01/14 05:53:48;;;;;;;13.95;3.58;;;5.80;99.90;;;;;;5024709;28;20470;-66
2023/01/14 05:56:14;;;;;;;11.68;3.05;;;5.80;99.90;;;;;;5026521;28;20032;-66
2023/01/14 05:58:39;;;;;;;10.35;3.13;;;5.90;99.90;;;;;;5028250;28;20033;-64
2023/01/14 06:06:39;;;;;;;;;;;5.90;99.90;;;;;;5026075;28;20045;-66
2023/01/14 06:09:09;;;;;;;13.85;1.83;;;5.90;99.90;;;;;;5027442;28;20281;-67
2023/01/14 06:11:36;;;;;;;14.57;2.00;;;5.90;99.90;;;;;;5022244;28;20033;-67
2023/01/14 06:14:03;;;;;;;16.27;3.20;;;5.90;99.90;;;;;;5007520;28;20028;-65
2023/01/14 06:16:40;;;;;;;23.20;3.38;;;5.90;99.90;;;;;;5026588;28;20048;-65
2023/01/14 06:19:11;;;;;;;7.78;2.20;;;6.00;99.90;;;;;;5029296;28;20463;-67
2023/01/14 06:21:37;;;;;;;24.48;2.80;;;6.00;99.90;;;;;;5027099;28;20025;-66
2023/01/14 06:24:03;;;;;;;8.00;1.45;;;6.00;99.90;;;;;;5024430;28;20460;-65
2023/01/14 06:26:29;;;;;;;20.63;2.42;;;6.10;99.90;;;;;;5027584;28;20025;-66
2023/01/14 06:28:59;;;;;;;14.93;2.28;;;6.10;99.90;;;;;;5024081;28;20030;-65
2023/01/14 06:31:25;;;;;;;14.65;2.53;;;6.10;99.90;;;;;;5025011;28;20075;-66
2023/01/14 06:33:50;;;;;;;21.05;2.67;;;6.20;99.90;;;;;;5024150;28;20025;-66
2023/01/14 06:36:16;;;;;;;10.90;2.60;;;6.10;99.90;;;;;;5026966;28;20390;-66
2023/01/14 06:38:42;;;;;;;15.43;2.15;;;6.20;99.90;;;;;;5025811;28;20036;-65
2023/01/14 06:41:10;;;;;;;19.27;2.17;;;6.20;99.90;;;;;;5025587;28;20036;-66
2023/01/14 06:43:37;;;;;;;9.60;2.22;;;6.20;99.90;;;;;;5025260;28;20380;-66
2023/01/14 06:46:03;;;;;;;17.17;2.17;;;6.20;99.90;;;;;;5027746;28;20034;-66
2023/01/14 06:48:29;;;;;;;16.48;2.10;;;6.20;99.90;;;;;;5024795;28;20041;-65
2023/01/14 06:50:55;;;;;;;10.40;1.88;;;6.20;99.90;;;;;;5025167;28;20090;-66
2023/01/14 06:53:21;;;;;;;16.45;1.98;;;6.20;99.90;;;;;;5025663;28;20394;-66
2023/01/14 06:55:48;;;;;;;12.73;3.10;;;6.30;99.90;;;;;;5024635;28;20132;-65
2023/01/14 06:58:14;;;;;;;11.98;2.05;;;6.20;99.90;;;;;;5027021;28;20022;-65
2023/01/14 07:00:39;;;;;;;21.30;2.38;;;6.30;99.90;;;;;;5022346;28;20899;-67
2023/01/14 07:03:05;;;;;;;10.90;2.42;;;6.30;99.90;;;;;;5024287;28;20034;-66
2023/01/14 07:05:30;;;;;;;13.82;1.98;;;6.30;99.90;;;;;;5024996;28;20049;-66
2023/01/14 07:07:56;;;;;;;13.32;1.95;;;6.30;99.90;;;;;;5026858;28;20103;-66
2023/01/14 07:10:22;;;;;;;12.27;2.05;;;6.30;99.90;;;;;;5021333;28;20049;-66
2023/01/14 07:12:49;;;;;;;10.50;1.95;;;6.30;99.90;;;;;;5024992;28;20116;-66
2023/01/14 07:15:17;;;;;;;6.85;2.10;;;6.30;99.90;;;;;;5006793;28;20874;-66
2023/01/14 07:17:45;;;;;;;10.85;2.17;;;6.30;99.90;;;;;;5026105;28;20061;-66
2023/01/14 07:20:11;;;;;;;13.88;2.05;;;6.30;99.90;;;;;;5025637;28;20060;-67
2023/01/14 07:22:37;;;;;;;12.77;1.90;;;6.30;99.90;;;;;;5020319;28;20766;-65
2023/01/14 07:25:04;;;;;;;14.05;2.38;;;6.30;99.90;;;;;;5025374;28;20036;-66
2023/01/14 07:27:30;;;;;;;14.45;3.42;;;6.30;99.90;;;;;;5027217;28;20029;-66
2023/01/14 07:29:56;;;;;;;16.38;2.53;;;6.30;99.90;;;;;;5023499;28;20048;-65
2023/01/14 07:32:21;;;;;;;11.43;2.05;;;6.30;99.90;;;;;;5025674;28;20112;-65
2023/01/14 07:34:47;;;;;;;14.00;1.88;;;6.20;99.90;;;;;;5025419;28;20543;-66
2023/01/14 07:37:12;;;;;;;15.65;2.33;;;6.20;99.90;;;;;;5025901;28;20029;-65
2023/01/14 07:39:38;;;;;;;20.85;3.13;;;6.10;99.90;;;;;;5025072;28;20434;-66
2023/01/14 07:42:04;;;;;;;9.85;1.60;;;6.10;99.90;;;;;;5023256;28;20026;-65
2023/01/14 07:44:29;;;;;;;16.88;2.35;;;6.10;99.90;;;;;;5025281;28;20629;-66
2023/01/14 07:46:55;;;;;;;11.50;2.75;;;6.10;99.90;;;;;;5025347;28;20087;-66
2023/01/14 07:49:22;;;;;;;13.15;1.75;;;6.00;99.90;;;;;;5025268;28;20498;-66
2023/01/14 07:51:48;;;;;;;18.33;2.15;;;6.10;99.90;;;;;;5023044;28;20026;-67
2023/01/14 07:54:14;;;;;;;16.67;2.03;;;6.10;99.90;;;;;;5026049;28;20029;-65
2023/01/14 07:56:40;;;;;;;19.20;2.60;;;6.10;99.90;;;;;;5024447;28;20034;-66
2023/01/14 07:59:06;;;;;;;11.45;2.83;;;6.10;99.90;;;;;;5019671;28;20446;-66
2023/01/14 08:01:31;;;;;;;13.63;3.03;;;6.10;99.90;;;;;;5026273;28;20033;-66
2023/01/14 08:03:58;;;;;;;16.95;2.72;;;6.10;99.90;;;;;;5025893;28;20494;-66
2023/01/14 08:06:24;;;;;;;11.27;2.38;;;6.10;99.90;;;;;;5025735;28;20506;-67
2023/01/14 08:08:50;;;;;;;18.75;3.80;;;6.10;99.90;;;;;;5020679;28;20071;-66
2023/01/14 08:11:15;;;;;;;16.20;2.20;;;6.10;99.90;;;;;;5026084;28;20446;-66
2023/01/14 08:13:41;;;;;;;18.45;2.88;;;6.10;99.90;;;;;;5024109;28;20041;-64
2023/01/14 08:16:09;;;;;;;17.75;2.80;;;6.20;99.90;;;;;;5013287;28;20038;-66
2023/01/14 08:18:35;;;;;;;19.42;2.92;;;6.20;99.90;;;;;;5027546;28;20075;-66
2023/01/14 08:21:03;;;;;;;28.20;5.57;;;6.20;99.90;;;;;;5023883;28;20282;-64
2023/01/14 08:23:30;;;;;;;23.27;7.07;;;6.20;99.90;;;;;;5025366;28;20036;-66
2023/01/14 08:26:10;;;;;;;25.30;7.72;;;6.20;99.90;;;;;;5027369;28;20033;-66
2023/01/14 08:28:36;;;;;;;20.05;3.38;;;6.30;99.90;;;;;;5029480;28;20037;-66
2023/01/14 08:31:13;;;;;;;15.88;2.45;;;6.20;99.90;;;;;;5025228;28;20029;-66
2023/01/14 08:33:40;;;;;;;23.70;2.80;;;6.30;99.90;;;;;;5024036;28;20818;-65
2023/01/14 08:36:09;;;;;;;19.92;2.20;;;6.40;99.90;;;;;;5031097;28;20022;-66
2023/01/14 08:38:36;;;;;;;21.17;3.60;;;6.40;99.90;;;;;;5028363;28;20038;-67
2023/01/14 08:41:07;;;;;;;17.67;2.60;;;6.40;99.90;;;;;;5031228;28;20032;-66
2023/01/14 08:43:33;;;;;;;28.77;2.67;;;6.40;99.90;;;;;;5025323;28;20033;-65
2023/01/14 08:46:05;;;;;;;20.02;2.83;;;6.40;99.90;;;;;;5031639;28;20025;-67
2023/01/14 08:48:30;;;;;;;19.65;3.30;;;6.50;99.90;;;;;;5028233;28;20387;-67
2023/01/14 08:51:04;;;;;;;15.30;3.47;;;6.50;99.90;;;;;;5029692;28;20031;-66
2023/01/14 08:53:30;;;;;;;23.08;4.97;;;6.50;99.90;;;;;;5025599;28;20052;-67
2023/01/14 08:55:57;;;;;;;12.25;4.38;;;6.60;99.90;;;;;;5031785;28;20079;-66
2023/01/14 08:58:22;;;;;;;12.32;3.25;;;6.60;99.90;;;;;;5022090;28;20076;-66
2023/01/14 09:00:48;;;;;;;19.55;3.38;;;6.60;99.90;;;;;;5024408;28;20491;-67
2023/01/14 09:03:14;;;;;;;15.00;3.33;;;6.60;99.90;;;;;;5027015;28;20568;-66
2023/01/14 09:05:39;;;;;;;18.33;2.55;;;6.70;99.90;;;;;;5026882;28;20043;-66
2023/01/14 09:19:06;;;;;;;5.82;2.50;;;6.90;99.90;;;;;;5025332;28;20117;-66
2023/01/14 09:21:32;;;;;;;12.35;2.70;;;6.90;99.90;;;;;;5026778;28;20100;-66
2023/01/14 09:23:58;;;;;;;15.80;3.20;;;7.00;99.90;;;;;;5025772;28;20068;-67
2023/01/14 09:26:23;;;;;;;15.40;2.33;;;7.00;99.90;;;;;;5024695;28;20029;-66
2023/01/14 09:28:50;;;;;;;8.25;2.95;;;7.00;99.90;;;;;;5021867;28;20458;-66
2023/01/14 09:31:15;;;;;;;7.35;1.70;;;7.00;99.90;;;;;;5023948;28;20043;-66
2023/01/14 09:33:41;;;;;;;7.95;1.52;;;7.00;99.90;;;;;;5026908;28;20030;-67
2023/01/14 09:36:07;;;;;;;9.98;1.65;;;6.90;99.90;;;;;;5026462;28;20030;-66
2023/01/14 09:38:33;;;;;;;8.73;1.35;;;6.90;99.90;;;;;;5023971;28;20030;-66
2023/01/14 09:40:58;;;;;;;18.70;3.33;;;7.00;99.90;;;;;;5028323;28;20030;-66
2023/01/14 09:43:26;;;;;;;9.13;2.35;;;7.00;99.90;;;;;;5023359;28;20030;-66
2023/01/14 09:45:59;;;;;;;7.30;2.05;;;7.00;99.90;;;;;;5026695;28;21291;-66
2023/01/14 09:48:26;;;;;;;8.70;1.83;;;7.00;99.90;;;;;;5020749;28;20483;-67
2023/01/14 09:51:35;;;;;;;6.20;1.52;;;7.00;99.90;;;;;;5021759;28;20037;-66
2023/01/14 09:54:25;;;;;;;6.35;0.93;;;7.10;99.90;;;;;;5026620;28;20044;-66
2023/01/14 09:56:56;;;;;;;4.18;1.63;;;7.10;99.90;;;;;;5024699;28;21099;-67
2023/01/14 09:59:35;;;;;;;5.30;1.45;;;7.10;99.90;;;;;;5025599;28;20406;-66
2023/01/14 10:02:13;;;;;;;8.77;1.95;;;7.10;99.90;;;;;;5022540;28;20036;-66
2023/01/14 10:04:54;;;;;;;4.45;2.03;;;7.20;99.90;;;;;;5025186;28;20036;-67
2023/01/14 10:07:21;;;;;;;9.95;1.30;;;7.20;99.90;;;;;;5025411;28;20430;-67
2023/01/14 10:10:01;;;;;;;3.60;1.20;;;7.20;99.90;;;;;;5029636;28;20084;-66
2023/01/14 10:12:40;;;;;;;12.38;1.52;;;7.20;99.90;;;;;;5025263;28;20048;-66
2023/01/14 10:15:17;;;;;;;8.77;1.63;;;7.30;99.90;;;;;;5024871;28;20041;-67
2023/01/14 10:17:48;;;;;;;7.07;1.20;;;7.30;99.90;;;;;;5025995;28;20099;-65
2023/01/14 10:20:27;;;;;;;5.57;1.40;;;7.40;99.90;;;;;;5026139;28;20140;-66
2023/01/14 10:23:05;;;;;;;5.75;1.92;;;7.40;99.90;;;;;;5026895;28;20441;-66
2023/01/14 10:25:31;;;;;;;3.53;1.08;;;7.40;99.90;;;;;;5026161;28;20040;-67
2023/01/14 10:27:58;;;;;;;7.43;1.80;;;7.50;99.90;;;;;;5027418;28;20029;-65
2023/01/14 10:30:31;;;;;;;6.75;1.60;;;7.50;99.90;;;;;;5026034;28;20120;-66
2023/01/14 10:32:59;;;;;;;8.00;1.77;;;7.50;99.90;;;;;;5019506;28;20625;-66
2023/01/14 10:35:36;;;;;;;9.73;2.50;;;7.60;99.90;;;;;;5027814;28;20030;-66
2023/01/14 10:38:01;;;;;;;5.45;2.05;;;7.60;99.90;;;;;;5024641;28;20029;-66
2023/01/14 10:40:29;;;;;;;6.75;2.67;;;7.60;99.90;;;;;;5023098;28;20030;-66
2023/01/14 10:42:57;;;;;;;3.45;1.45;;;7.60;99.90;;;;;;5025296;28;20025;-66
2023/01/14 10:45:23;;;;;;;8.25;2.35;;;7.70;99.90;;;;;;5025045;28;20025;-66
2023/01/14 10:47:53;;;;;;;2.75;1.58;;;7.80;99.90;;;;;;5021197;28;20033;-66
2023/01/14 10:50:25;;;;;;;8.50;2.25;;;7.80;99.90;;;;;;5027598;28;20037;-67
2023/01/14 10:52:52;;;;;;;7.60;1.70;;;7.80;99.90;;;;;;5024732;28;20059;-66
2023/01/14 10:55:25;;;;;;;13.40;4.45;;;7.80;99.90;;;;;;5022393;28;20036;-67
2023/01/14 10:57:59;;;;;;;10.05;2.53;;;7.80;99.90;;;;;;5037543;28;20029;-66
2023/01/14 11:00:30;;;;;;;7.68;1.23;;;7.80;99.90;;;;;;5023417;28;20112;-65
2023/01/14 11:02:57;;;;;;;6.93;1.75;;;7.80;99.90;;;;;;5025176;28;20029;-66
2023/01/14 11:05:33;;;;;;;12.20;3.25;;;7.80;99.90;;;;;;5020067;28;20391;-67
2023/01/14 11:08:37;;;;;;;8.98;2.63;;;7.70;99.90;;;;;;5028239;28;20079;-66
2023/01/14 11:11:39;;;;;;;12.55;3.60;;;7.70;99.90;;;;;;5020926;28;20044;-67
2023/01/14 11:14:25;;;;;;;6.53;2.80;;;7.70;99.90;;;;;;5011829;28;20587;-66
2023/01/14 11:16:51;;;;;;;5.68;1.48;;;7.60;99.90;;;;;;5028998;28;20044;-66
2023/01/14 11:19:20;;;;;;;5.32;1.35;;;7.70;99.90;;;;;;5026760;28;20026;-66
2023/01/14 11:21:50;;;;;;;7.05;1.48;;;7.70;99.90;;;;;;5024555;28;20013;-66
2023/01/14 11:24:38;;;;;;;5.00;1.20;;;7.70;99.90;;;;;;5024022;28;20076;-65
2023/01/14 11:27:20;;;;;;;4.40;1.48;;;7.70;99.90;;;;;;5027493;28;20036;-67
2023/01/14 11:29:57;;;;;;;3.03;1.88;;;7.70;99.90;;;;;;5027409;28;20029;-66
2023/01/14 11:32:26;;;;;;;11.52;1.90;;;7.70;99.90;;;;;;5026979;28;20025;-66
2023/01/14 11:34:55;;;;;;;9.90;3.72;;;7.80;99.90;;;;;;5028089;28;20113;-65
2023/01/14 11:37:45;;;;;;;11.00;1.60;;;7.70;99.90;;;;;;5024831;28;20025;-67
2023/01/14 11:43:21;;;;;;;7.57;0.98;;;7.70;99.90;;;;;;5022749;28;20033;-67
2023/01/14 11:46:02;;;;;;;4.82;1.58;;;7.70;99.90;;;;;;5022748;28;20059;-66
2023/01/14 11:48:29;;;;;;;8.52;2.75;;;7.70;99.90;;;;;;5024082;28;20116;-66
2023/01/14 11:51:00;;;;;;;7.53;2.05;;;7.70;99.90;;;;;;5025625;28;20034;-66
2023/01/14 11:53:51;;;;;;;5.93;1.80;;;7.70;99.90;;;;;;5026659;28;20463;-66
2023/01/14 11:56:28;;;;;;;10.75;2.78;;;7.70;99.90;;;;;;5028087;28;20026;-66
2023/01/14 11:58:54;;;;;;;20.23;5.60;;;7.70;99.90;;;;;;5025261;28;20037;-66
2023/01/14 12:01:41;;;;;;;11.35;3.15;;;7.80;99.90;;;;;;5027006;28;20033;-67
2023/01/14 12:04:18;;;;;;;8.02;3.83;;;7.70;99.90;;;;;;5022881;28;20041;-67
2023/01/14 12:06:59;;;;;;;9.38;2.63;;;7.80;99.90;;;;;;5015903;28;20033;-67
2023/01/14 12:09:33;;;;;;;13.05;2.25;;;7.80;99.90;;;;;;5030265;28;20521;-66
2023/01/14 12:12:01;;;;;;;;;;;7.80;99.90;;;;;;5030056;28;20435;-66
2023/01/14 12:17:36;;;;;;;9.48;2.90;;;7.90;99.90;;;;;;5009822;28;20052;-66
2023/01/14 12:20:07;;;;;;;7.63;3.30;;;7.90;99.90;;;;;;5020380;28;20593;-67
2023/01/14 12:22:45;;;;;;;10.95;2.35;;;7.90;99.90;;;;;;5022125;28;20041;-67
2023/01/14 12:25:29;;;;;;;4.03;1.00;;;7.90;99.90;;;;;;5015922;28;20442;-66
2023/01/14 12:28:08;;;;;;;14.27;4.23;;;7.90;99.90;;;;;;5018102;28;20029;-66
2023/01/14 12:30:52;;;;;;;9.48;3.50;;;7.90;99.90;;;;;;5027490;28;20033;-66
2023/01/14 12:33:38;;;;;;;3.70;0.80;;;7.90;99.90;;;;;;5026234;28;20026;-66
2023/01/14 12:36:14;;;;;;;3.63;1.35;;;7.90;99.90;;;;;;5026898;28;20613;-66
2023/01/14 12:47:44;;;;;;;5.30;1.10;;;8.00;99.90;;;;;;5024300;28;20065;-67
2023/01/14 12:50:13;;;;;;;2.80;0.85;;;8.00;99.90;;;;;;5021829;28;20025;-67
2023/01/14 12:52:47;;;;;;;0.85;0.52;;;8.10;99.90;;;;;;5023272;28;20092;-66
2023/01/14 12:55:29;;;;;;;4.75;0.80;;;8.10;99.90;;;;;;5023683;28;20030;-66
2023/01/14 12:57:56;;;;;;;2.80;1.27;;;8.00;99.90;;;;;;5023733;28;20025;-66
2023/01/14 13:00:32;;;;;;;2.65;0.60;;;8.10;99.90;;;;;;5013605;28;20061;-66
2023/01/14 13:03:03;;;;;;;1.85;0.73;;;8.00;99.90;;;;;;5020779;28;20044;-66
2023/01/14 13:05:37;;;;;;;2.72;1.25;;;8.10;99.90;;;;;;5024135;28;20040;-66
2023/01/14 13:08:07;;;;;;;5.00;1.25;;;8.10;99.90;;;;;;5022574;28;20112;-66
2023/01/14 13:10:38;;;;;;;3.05;0.93;;;8.10;99.90;;;;;;5020810;28;20506;-66
2023/01/14 13:13:17;;;;;;;3.97;1.35;;;8.20;99.90;;;;;;5023473;28;20021;-66
2023/01/14 13:15:43;;;;;;;2.65;0.98;;;8.20;99.90;;;;;;5022346;28;20032;-66
2023/01/14 13:18:34;;;;;;;1.77;0.70;;;8.10;99.90;;;;;;5009107;28;20037;-66
2023/01/14 13:21:02;;;;;;;3.28;1.05;;;8.20;99.90;;;;;;5021694;28;20050;-66
2023/01/14 13:23:37;;;;;;;3.97;1.67;;;8.20;99.90;;;;;;5027113;28;20014;-66
2023/01/14 13:26:19;;;;;;;4.55;1.10;;;8.20;99.90;;;;;;5023615;28;20045;-66
2023/01/14 13:29:19;;;;;;;3.17;1.25;;;8.20;99.90;;;;;;5030120;28;20717;-66
2023/01/14 13:31:45;;;;;;;3.50;1.02;;;8.30;99.90;;;;;;5027956;28;20036;-66
2023/01/14 13:34:28;;;;;;;1.60;0.60;;;8.30;99.90;;;;;;5026702;28;20033;-65
2023/01/14 13:36:59;;;;;;;1.17;0.70;;;8.30;99.90;;;;;;5022764;28;20550;-66
2023/01/14 13:39:25;;;;;;;3.88;0.80;;;8.30;99.90;;;;;;5023509;28;20075;-66
2023/01/14 13:41:53;;;;;;;4.95;0.93;;;8.30;99.90;;;;;;5024688;28;20034;-66
2023/01/14 13:44:24;;;;;;;3.63;1.10;;;8.30;99.90;;;;;;5025921;28;20026;-66
2023/01/14 13:46:54;;;;;;;6.10;0.95;;;8.40;99.90;;;;;;5026191;28;20037;-66
2023/01/14 13:49:37;;;;;;;0.82;0.52;;;8.40;99.90;;;;;;5031093;28;20542;-66